Time;durP1;ratioP1;P1;durP2;ratioP2;P2;SDS_P1;SDS_P2;PMS_P1;PMS_P2;Temp;Humidity;BMP_temperature;BMP_pressure;BME280_temperature;BME280_humidity;BME280_pressure;Samples;Min_cycle;Max_cycle;Signal;HPM_P1;HPM_P2
2021/05/29 00:02:24;;;;;;;6.53;5.10;;;13.20;99.90;;;;;;5069854;28;20210;-70
2021/05/29 00:04:50;;;;;;;5.67;4.60;;;13.10;99.90;;;;;;5076598;28;20682;-69
2021/05/29 00:07:18;;;;;;;7.83;4.97;;;13.10;99.90;;;;;;5071661;28;20530;-69
2021/05/29 00:09:44;;;;;;;5.47;4.57;;;13.10;99.90;;;;;;5081831;28;20305;-70
2021/05/29 00:12:12;;;;;;;5.57;4.40;;;13.10;99.90;;;;;;5073877;28;20209;-71
2021/05/29 00:14:40;;;;;;;6.70;5.10;;;13.20;99.90;;;;;;5083097;28;20342;-69
2021/05/29 00:17:09;;;;;;;7.40;4.97;;;13.20;99.90;;;;;;5078638;28;20237;-69
2021/05/29 00:19:36;;;;;;;5.77;4.90;;;13.20;99.90;;;;;;5076957;28;20236;-69
2021/05/29 00:22:03;;;;;;;6.73;5.33;;;13.20;99.90;;;;;;5071452;28;20213;-70
2021/05/29 00:24:29;;;;;;;6.20;5.07;;;13.20;99.90;;;;;;5079552;28;20205;-70
2021/05/29 00:26:56;;;;;;;7.27;5.40;;;13.30;99.90;;;;;;5084579;28;20215;-69
2021/05/29 00:29:22;;;;;;;5.80;5.00;;;13.30;99.90;;;;;;5076100;28;20317;-69
2021/05/29 00:31:48;;;;;;;6.87;5.70;;;13.30;99.90;;;;;;5076775;28;20628;-69
2021/05/29 00:34:16;;;;;;;9.23;6.10;;;13.30;99.90;;;;;;5078548;28;20200;-69
2021/05/29 00:36:42;;;;;;;9.37;6.90;;;13.30;99.90;;;;;;5074545;28;20205;-69
2021/05/29 00:39:09;;;;;;;9.20;6.63;;;13.30;99.90;;;;;;5071411;28;20265;-70
2021/05/29 00:41:36;;;;;;;10.60;6.83;;;13.30;99.90;;;;;;5077440;28;20637;-70
2021/05/29 00:44:02;;;;;;;8.80;6.90;;;13.20;99.90;;;;;;5082048;28;20216;-69
2021/05/29 00:46:29;;;;;;;8.73;6.97;;;13.30;99.90;;;;;;5074426;28;20201;-70
2021/05/29 00:48:55;;;;;;;9.90;6.50;;;13.30;99.90;;;;;;5082901;28;20253;-70
2021/05/29 00:51:23;;;;;;;7.50;6.27;;;13.30;99.90;;;;;;5082558;28;20287;-70
2021/05/29 00:53:49;;;;;;;8.90;6.83;;;13.20;99.90;;;;;;5080624;28;20205;-70
2021/05/29 00:56:16;;;;;;;7.23;6.07;;;13.30;99.90;;;;;;5091044;28;20236;-70
2021/05/29 00:58:42;;;;;;;6.83;6.13;;;13.30;99.90;;;;;;5079193;28;20284;-69
2021/05/29 01:01:09;;;;;;;10.00;6.20;;;13.30;99.90;;;;;;5071964;28;20209;-71
2021/05/29 01:03:36;;;;;;;6.57;5.77;;;13.30;99.90;;;;;;5080379;28;20205;-71
2021/05/29 01:06:04;;;;;;;8.60;5.93;;;13.30;99.90;;;;;;5071578;28;20216;-73
2021/05/29 01:08:31;;;;;;;7.67;6.10;;;13.30;99.90;;;;;;5076788;28;20205;-70
2021/05/29 01:10:58;;;;;;;6.80;5.73;;;13.30;99.90;;;;;;5083272;28;20266;-71
2021/05/29 01:13:29;;;;;;;7.13;5.43;;;13.30;99.90;;;;;;5069138;28;20633;-72
2021/05/29 01:16:00;;;;;;;7.17;5.90;;;13.30;99.90;;;;;;5071342;28;20287;-71
2021/05/29 01:18:26;;;;;;;7.33;6.00;;;13.30;99.90;;;;;;5088579;28;20201;-71
2021/05/29 01:20:53;;;;;;;6.83;5.57;;;13.40;99.90;;;;;;5076414;28;20217;-71
2021/05/29 01:23:20;;;;;;;9.03;5.60;;;13.40;99.90;;;;;;5072096;28;20202;-72
2021/05/29 01:25:48;;;;;;;6.67;5.50;;;13.40;99.90;;;;;;5086453;28;20245;-72
2021/05/29 01:28:17;;;;;;;7.30;5.77;;;13.40;99.90;;;;;;5073097;28;20212;-73
2021/05/29 01:30:46;;;;;;;7.93;4.87;;;13.40;99.90;;;;;;5078103;28;20673;-72
2021/05/29 01:33:15;;;;;;;6.57;5.43;;;13.50;99.90;;;;;;5078256;28;20235;-71
2021/05/29 01:35:42;;;;;;;6.23;5.30;;;13.40;99.90;;;;;;5077942;28;20610;-71
2021/05/29 01:38:09;;;;;;;5.77;5.23;;;13.40;99.90;;;;;;5092925;28;20579;-70
2021/05/29 01:40:36;;;;;;;6.17;5.43;;;13.40;99.90;;;;;;5074717;28;20638;-71
2021/05/29 01:43:03;;;;;;;6.47;5.20;;;13.40;99.90;;;;;;5073003;28;20209;-71
2021/05/29 01:45:30;;;;;;;6.40;5.33;;;13.40;99.90;;;;;;5085254;28;20201;-71
2021/05/29 01:47:57;;;;;;;8.37;5.53;;;13.40;99.90;;;;;;5074618;28;20201;-72
2021/05/29 01:50:24;;;;;;;6.50;5.73;;;13.50;99.90;;;;;;5073711;28;20217;-72
2021/05/29 01:52:53;;;;;;;6.47;5.70;;;13.40;99.90;;;;;;5082604;28;20942;-71
2021/05/29 01:55:22;;;;;;;5.90;5.40;;;13.40;99.90;;;;;;5089334;28;20209;-72
2021/05/29 01:57:50;;;;;;;6.00;5.40;;;13.40;99.90;;;;;;5071811;28;20239;-72
2021/05/29 02:00:18;;;;;;;5.67;5.10;;;13.40;99.90;;;;;;5073756;28;20205;-71
2021/05/29 02:02:44;;;;;;;5.97;5.40;;;13.40;99.90;;;;;;5076724;28;20292;-72
2021/05/29 02:05:22;;;;;;;6.43;5.60;;;13.40;99.90;;;;;;5084298;28;20243;-72
2021/05/29 02:07:49;;;;;;;6.37;5.33;;;13.40;99.90;;;;;;5078664;28;20243;-72
2021/05/29 02:10:18;;;;;;;6.50;5.40;;;13.40;99.90;;;;;;5086140;28;20370;-72
2021/05/29 02:12:46;;;;;;;5.90;5.40;;;13.40;99.90;;;;;;5078755;28;20247;-72
2021/05/29 02:15:16;;;;;;;7.80;5.93;;;13.40;99.90;;;;;;5086547;28;20225;-72
2021/05/29 02:17:43;;;;;;;7.13;5.67;;;13.50;99.90;;;;;;5083714;28;20254;-72
2021/05/29 02:20:11;;;;;;;6.97;6.27;;;13.40;99.90;;;;;;5074282;28;20585;-72
2021/05/29 02:22:38;;;;;;;10.40;6.07;;;13.40;99.90;;;;;;5074912;28;20244;-71
2021/05/29 02:25:05;;;;;;;7.00;5.93;;;13.40;99.90;;;;;;5084919;28;20274;-72
2021/05/29 02:27:32;;;;;;;6.37;5.77;;;13.40;99.90;;;;;;5082412;28;20216;-72
2021/05/29 02:29:58;;;;;;;7.00;6.03;;;13.40;99.90;;;;;;5076949;28;20350;-71
2021/05/29 02:32:26;;;;;;;7.30;5.57;;;13.40;99.90;;;;;;5079841;28;20205;-72
2021/05/29 02:34:52;;;;;;;7.77;6.67;;;13.40;99.90;;;;;;5074378;28;20209;-72
2021/05/29 02:37:19;;;;;;;7.07;5.70;;;13.40;99.90;;;;;;5077460;28;20205;-72
2021/05/29 02:39:45;;;;;;;7.37;6.40;;;13.30;99.90;;;;;;5079232;28;20208;-72
2021/05/29 02:42:13;;;;;;;6.57;5.93;;;13.30;99.90;;;;;;5083751;28;20212;-72
2021/05/29 02:44:39;;;;;;;6.30;5.70;;;13.30;99.90;;;;;;5079991;28;20201;-72
2021/05/29 02:47:06;;;;;;;6.57;5.87;;;13.30;99.90;;;;;;5074449;28;20210;-72
2021/05/29 02:49:33;;;;;;;8.27;6.33;;;13.30;99.90;;;;;;5085951;28;20216;-72
2021/05/29 02:51:59;;;;;;;8.10;6.67;;;13.40;99.90;;;;;;5078884;28;20201;-71
2021/05/29 02:54:26;;;;;;;9.20;6.67;;;13.40;99.90;;;;;;5088834;28;20661;-71
2021/05/29 02:56:52;;;;;;;7.40;6.57;;;13.40;99.90;;;;;;5073683;28;20264;-72
2021/05/29 02:59:19;;;;;;;7.40;6.67;;;13.40;99.90;;;;;;5071662;28;20337;-71
2021/05/29 03:01:45;;;;;;;8.30;6.97;;;13.40;99.90;;;;;;5082923;28;20247;-71
2021/05/29 03:04:11;;;;;;;8.33;6.50;;;13.40;99.90;;;;;;5074748;28;20205;-71
2021/05/29 03:06:39;;;;;;;7.30;6.60;;;13.40;99.90;;;;;;5070828;28;20273;-71
2021/05/29 03:09:06;;;;;;;8.07;7.27;;;13.40;99.90;;;;;;5072641;28;20231;-71
2021/05/29 03:11:39;;;;;;;7.70;6.97;;;13.40;99.90;;;;;;5079208;28;20212;-70
2021/05/29 03:14:05;;;;;;;8.90;7.13;;;13.40;99.90;;;;;;5085704;28;20228;-71
2021/05/29 03:16:32;;;;;;;7.70;7.00;;;13.40;99.90;;;;;;5087194;28;20205;-71
2021/05/29 03:18:58;;;;;;;9.93;6.73;;;13.40;99.90;;;;;;5072002;28;20198;-71
2021/05/29 03:21:25;;;;;;;8.00;7.20;;;13.40;99.90;;;;;;5077057;28;20201;-72
2021/05/29 03:23:52;;;;;;;8.17;7.37;;;13.30;99.90;;;;;;5082211;28;21794;-72
2021/05/29 03:26:18;;;;;;;7.60;6.90;;;13.30;99.90;;;;;;5072925;28;20251;-71
2021/05/29 03:28:45;;;;;;;7.70;6.97;;;13.30;99.90;;;;;;5083209;28;20212;-71
2021/05/29 03:31:11;;;;;;;8.23;7.07;;;13.30;99.90;;;;;;5080330;28;20602;-72
2021/05/29 03:33:37;;;;;;;8.67;7.20;;;13.30;99.90;;;;;;5076029;28;20303;-71
2021/05/29 03:36:05;;;;;;;8.00;7.20;;;13.30;99.90;;;;;;5080450;28;20207;-71
2021/05/29 03:38:31;;;;;;;8.13;7.30;;;13.30;99.90;;;;;;5072189;28;20286;-72
2021/05/29 03:40:59;;;;;;;9.33;7.80;;;13.30;99.90;;;;;;5070587;28;20215;-71
2021/05/29 03:43:25;;;;;;;7.67;6.87;;;13.30;99.90;;;;;;5082202;28;20633;-73
2021/05/29 03:45:51;;;;;;;7.53;6.83;;;13.30;99.90;;;;;;5073198;28;20223;-71
2021/05/29 03:48:18;;;;;;;11.07;7.43;;;13.30;99.90;;;;;;5077781;28;20221;-72
2021/05/29 03:50:44;;;;;;;8.33;7.13;;;13.30;99.90;;;;;;5082235;28;20221;-71
2021/05/29 03:53:11;;;;;;;8.93;7.00;;;13.30;99.90;;;;;;5069350;28;20300;-72
2021/05/29 03:55:37;;;;;;;7.70;7.00;;;13.30;99.90;;;;;;5071301;28;20287;-72
2021/05/29 03:58:05;;;;;;;8.60;6.63;;;13.30;99.90;;;;;;5068506;28;20757;-71
2021/05/29 04:00:32;;;;;;;6.77;6.17;;;13.30;99.90;;;;;;5071141;28;20882;-71
2021/05/29 04:02:59;;;;;;;7.57;6.77;;;13.30;99.90;;;;;;5070918;28;20212;-72
2021/05/29 04:05:25;;;;;;;7.73;6.93;;;13.30;99.90;;;;;;5077664;28;20751;-70
2021/05/29 04:07:52;;;;;;;7.03;6.33;;;13.30;99.90;;;;;;5077181;28;20706;-70
2021/05/29 04:10:21;;;;;;;7.47;6.77;;;13.30;99.90;;;;;;5075307;28;20224;-71
2021/05/29 04:12:48;;;;;;;7.33;6.57;;;13.40;99.90;;;;;;5082196;28;20208;-71
2021/05/29 04:15:17;;;;;;;7.07;6.40;;;13.40;99.90;;;;;;5088089;28;20645;-72
2021/05/29 04:17:44;;;;;;;8.67;6.80;;;13.40;99.90;;;;;;5084102;28;20201;-72
2021/05/29 04:20:13;;;;;;;8.10;6.60;;;13.40;99.90;;;;;;5072915;28;20667;-72
2021/05/29 04:22:40;;;;;;;7.37;6.57;;;13.50;99.90;;;;;;5080456;28;20227;-71
2021/05/29 04:25:08;;;;;;;7.00;6.33;;;13.50;99.90;;;;;;5073383;28;20206;-71
2021/05/29 04:27:35;;;;;;;6.60;6.00;;;13.50;99.90;;;;;;5089287;28;20201;-71
2021/05/29 04:30:03;;;;;;;7.30;6.50;;;13.50;99.90;;;;;;5069360;28;20727;-71
2021/05/29 04:32:30;;;;;;;6.17;5.57;;;13.50;99.90;;;;;;5076523;28;20208;-72
2021/05/29 04:34:56;;;;;;;7.13;6.33;;;13.50;99.90;;;;;;5078268;28;20208;-72
2021/05/29 04:37:23;;;;;;;7.83;6.40;;;13.50;99.90;;;;;;5075083;28;20201;-72
2021/05/29 04:39:49;;;;;;;7.10;6.43;;;13.50;99.90;;;;;;5071284;28;20197;-73
2021/05/29 04:42:16;;;;;;;7.70;6.80;;;13.50;99.90;;;;;;5081343;28;20209;-72
2021/05/29 04:44:42;;;;;;;8.10;6.13;;;13.50;99.90;;;;;;5082134;28;20278;-72
2021/05/29 04:47:09;;;;;;;7.10;6.40;;;13.50;99.90;;;;;;5070072;28;20206;-72
2021/05/29 04:49:36;;;;;;;7.17;6.47;;;13.40;99.90;;;;;;5078577;28;20677;-71
2021/05/29 04:52:04;;;;;;;7.07;6.37;;;13.40;99.90;;;;;;5084083;28;20236;-72
2021/05/29 04:54:30;;;;;;;7.50;6.70;;;13.40;99.90;;;;;;5091094;28;20212;-72
2021/05/29 04:56:57;;;;;;;7.77;6.53;;;13.50;99.90;;;;;;5082969;28;20236;-72
2021/05/29 04:59:24;;;;;;;8.13;6.73;;;13.50;99.90;;;;;;5069644;28;20581;-72
2021/05/29 05:01:50;;;;;;;9.47;6.33;;;13.50;99.90;;;;;;5074217;28;20577;-71
2021/05/29 05:04:17;;;;;;;6.53;5.83;;;13.50;99.90;;;;;;5076805;28;20204;-72
2021/05/29 05:06:44;;;;;;;5.67;5.17;;;13.60;99.90;;;;;;5078348;28;20201;-71
2021/05/29 05:09:11;;;;;;;5.77;5.17;;;13.60;99.90;;;;;;5077357;28;20306;-72
2021/05/29 05:11:37;;;;;;;6.00;4.90;;;13.60;99.90;;;;;;5090397;28;20291;-71
2021/05/29 05:14:04;;;;;;;6.13;5.50;;;13.60;99.90;;;;;;5079064;28;20231;-72
2021/05/29 05:16:31;;;;;;;5.87;4.83;;;13.60;99.90;;;;;;5087027;28;20212;-70
2021/05/29 05:18:57;;;;;;;6.17;5.57;;;13.60;99.90;;;;;;5082856;28;20213;-72
2021/05/29 05:21:23;;;;;;;6.90;5.77;;;13.50;99.90;;;;;;5078102;28;20205;-71
2021/05/29 05:23:52;;;;;;;9.07;5.30;;;13.50;99.90;;;;;;5087250;28;20660;-72
2021/05/29 05:26:19;;;;;;;5.70;5.10;;;13.50;99.90;;;;;;5086142;28;20683;-72
2021/05/29 05:28:46;;;;;;;5.57;5.07;;;13.60;99.90;;;;;;5085797;28;20210;-72
2021/05/29 05:31:13;;;;;;;5.93;4.70;;;13.70;99.90;;;;;;5084385;28;20235;-70
2021/05/29 05:33:41;;;;;;;5.00;4.43;;;13.80;99.90;;;;;;5076520;28;20209;-71
2021/05/29 05:36:08;;;;;;;4.53;4.10;;;13.90;99.90;;;;;;5076804;28;20220;-71
2021/05/29 05:38:35;;;;;;;4.00;3.60;;;14.00;99.90;;;;;;5086655;28;20201;-71
2021/05/29 05:41:03;;;;;;;4.00;3.70;;;14.00;99.90;;;;;;5094698;28;20201;-71
2021/05/29 05:43:29;;;;;;;5.70;3.70;;;14.10;99.90;;;;;;5086948;28;20205;-72
2021/05/29 05:45:56;;;;;;;4.40;4.00;;;14.20;99.90;;;;;;5076855;28;20296;-73
2021/05/29 05:48:22;;;;;;;3.93;3.60;;;14.30;99.90;;;;;;5080255;28;20616;-71
2021/05/29 05:50:53;;;;;;;4.80;4.40;;;14.40;99.90;;;;;;5078930;28;20221;-71
2021/05/29 05:53:19;;;;;;;4.40;4.00;;;14.40;99.90;;;;;;5080300;28;20258;-72
2021/05/29 05:55:46;;;;;;;4.03;3.63;;;14.50;99.90;;;;;;5078297;28;20208;-73
2021/05/29 05:58:13;;;;;;;5.07;4.67;;;14.60;99.90;;;;;;5085779;28;20232;-70
2021/05/29 06:00:40;;;;;;;4.70;4.20;;;14.70;99.90;;;;;;5077989;28;20565;-71
2021/05/29 06:03:06;;;;;;;5.87;4.60;;;14.60;99.90;;;;;;5088310;28;20249;-71
2021/05/29 06:05:32;;;;;;;5.10;4.70;;;14.60;99.90;;;;;;5077829;28;20248;-72
2021/05/29 06:07:59;;;;;;;5.23;4.13;;;14.60;99.90;;;;;;5076487;28;20201;-71
2021/05/29 06:10:25;;;;;;;5.00;4.50;;;14.60;99.90;;;;;;5083653;28;20214;-71
2021/05/29 06:12:53;;;;;;;5.13;4.60;;;14.60;99.90;;;;;;5081753;28;20296;-71
2021/05/29 06:20:53;;;;;;;5.20;4.00;;;14.70;99.90;;;;;;5073669;28;20233;-72
2021/05/29 06:23:19;;;;;;;4.13;3.67;;;14.80;99.90;;;;;;5077783;28;20258;-72
2021/05/29 06:25:46;;;;;;;5.77;3.87;;;14.90;99.90;;;;;;5076470;28;20209;-71
2021/05/29 06:28:12;;;;;;;4.73;3.90;;;15.10;99.90;;;;;;5083385;28;20244;-72
2021/05/29 06:30:39;;;;;;;4.47;4.07;;;15.20;99.90;;;;;;5080825;28;20228;-73
2021/05/29 06:33:07;;;;;;;3.73;3.40;;;15.30;99.90;;;;;;5081457;28;20205;-73
2021/05/29 06:35:33;;;;;;;3.97;3.63;;;15.30;99.90;;;;;;5075257;28;20241;-72
2021/05/29 06:38:00;;;;;;;3.40;3.10;;;15.50;99.90;;;;;;5074465;28;20254;-72
2021/05/29 06:40:27;;;;;;;3.20;2.20;;;15.70;99.90;;;;;;5087711;28;20205;-73
2021/05/29 06:42:54;;;;;;;2.90;2.60;;;16.00;99.90;;;;;;5083370;28;20291;-70
2021/05/29 06:45:22;;;;;;;2.40;2.20;;;16.20;99.90;;;;;;5071887;28;20237;-72
2021/05/29 06:47:49;;;;;;;2.77;2.00;;;16.50;99.90;;;;;;5077275;28;20236;-73
2021/05/29 06:50:16;;;;;;;2.37;2.17;;;16.80;99.90;;;;;;5076027;28;20225;-72
2021/05/29 06:52:46;;;;;;;2.60;2.30;;;17.00;99.90;;;;;;5083936;28;20209;-72
2021/05/29 07:00:44;;;;;;;4.57;3.50;;;17.10;97.60;;;;;;5075320;28;20189;-73
2021/05/29 07:03:11;;;;;;;3.13;2.77;;;17.30;97.40;;;;;;5074812;28;20718;-71
2021/05/29 07:05:38;;;;;;;6.70;3.33;;;17.30;96.70;;;;;;5077699;28;20212;-73
2021/05/29 07:08:05;;;;;;;4.80;4.17;;;17.30;96.00;;;;;;5072322;28;20201;-72
2021/05/29 07:10:31;;;;;;;4.17;2.70;;;17.30;95.60;;;;;;5084654;28;20277;-72
2021/05/29 07:12:57;;;;;;;3.23;2.90;;;17.30;94.70;;;;;;5079351;28;20214;-72
2021/05/29 07:15:30;;;;;;;6.27;3.97;;;17.30;94.90;;;;;;5082907;28;20224;-72
2021/05/29 07:17:57;;;;;;;3.03;2.53;;;17.30;94.90;;;;;;5087517;28;20197;-71
2021/05/29 07:20:24;;;;;;;4.10;2.53;;;17.40;94.40;;;;;;5078407;28;20204;-72
2021/05/29 07:22:50;;;;;;;3.87;2.67;;;17.30;93.70;;;;;;5073140;28;20202;-72
2021/05/29 07:25:17;;;;;;;3.87;2.60;;;17.20;93.40;;;;;;5073668;28;20324;-70
2021/05/29 07:27:43;;;;;;;2.70;2.30;;;17.10;93.50;;;;;;5073683;28;20206;-69
2021/05/29 07:30:10;;;;;;;2.93;2.50;;;17.10;93.70;;;;;;5088018;28;20316;-71
2021/05/29 07:32:37;;;;;;;3.20;2.90;;;17.10;93.40;;;;;;5082381;28;20252;-72
2021/05/29 07:35:04;;;;;;;4.07;2.77;;;17.10;93.30;;;;;;5074228;28;20288;-71
2021/05/29 07:37:31;;;;;;;3.70;2.43;;;17.10;93.60;;;;;;5085714;28;20492;-71
2021/05/29 07:39:58;;;;;;;1.83;1.73;;;17.10;93.40;;;;;;5079012;28;20236;-70
2021/05/29 07:42:24;;;;;;;3.27;2.27;;;17.10;92.90;;;;;;5070415;28;20688;-71
2021/05/29 07:44:51;;;;;;;2.87;1.90;;;17.10;92.80;;;;;;5078485;28;20702;-70
2021/05/29 07:47:18;;;;;;;1.90;1.70;;;17.10;92.50;;;;;;5088519;28;20328;-72
2021/05/29 07:49:45;;;;;;;2.23;2.00;;;17.10;91.90;;;;;;5090083;28;20335;-71
2021/05/29 07:52:12;;;;;;;2.93;2.00;;;17.10;91.50;;;;;;5075129;28;20205;-71
2021/05/29 07:54:40;;;;;;;2.60;2.03;;;17.10;91.90;;;;;;5073265;28;20331;-71
2021/05/29 07:57:07;;;;;;;2.70;2.10;;;17.20;92.10;;;;;;5076701;28;20237;-72
2021/05/29 07:59:33;;;;;;;2.30;1.90;;;17.30;92.40;;;;;;5071844;28;20714;-73
2021/05/29 08:02:00;;;;;;;7.00;2.43;;;17.40;91.80;;;;;;5071608;28;20611;-70
2021/05/29 08:04:26;;;;;;;3.00;2.20;;;17.50;91.20;;;;;;5061876;28;20669;-71
2021/05/29 08:06:53;;;;;;;4.37;2.00;;;17.50;91.20;;;;;;5072716;28;20560;-72
2021/05/29 08:09:22;;;;;;;3.27;1.90;;;17.50;90.60;;;;;;5073097;28;20672;-71
2021/05/29 08:11:51;;;;;;;2.20;1.90;;;17.40;90.00;;;;;;5071402;28;20209;-72
2021/05/29 08:14:17;;;;;;;2.03;1.80;;;17.40;89.30;;;;;;5073938;28;20300;-71
2021/05/29 08:16:45;;;;;;;2.40;1.60;;;17.40;89.00;;;;;;5072914;28;20569;-70
2021/05/29 08:19:12;;;;;;;3.30;1.77;;;17.50;88.90;;;;;;5073647;28;20254;-71
2021/05/29 08:21:40;;;;;;;2.23;1.77;;;17.50;87.80;;;;;;5073146;28;20655;-72
2021/05/29 08:24:09;;;;;;;2.00;1.83;;;17.50;87.20;;;;;;5064449;28;20297;-70
2021/05/29 08:26:35;;;;;;;2.30;2.00;;;17.50;86.90;;;;;;5073791;28;20623;-71
2021/05/29 08:29:04;;;;;;;1.90;1.80;;;17.50;87.10;;;;;;5074599;28;20209;-71
2021/05/29 08:31:30;;;;;;;1.90;1.70;;;17.50;86.40;;;;;;5066627;28;20323;-71
2021/05/29 08:33:57;;;;;;;4.43;1.60;;;17.60;86.60;;;;;;5073971;28;20212;-72
2021/05/29 08:36:24;;;;;;;3.07;1.60;;;17.70;87.00;;;;;;5072360;28;20292;-70
2021/05/29 08:38:51;;;;;;;2.20;2.00;;;17.90;86.70;;;;;;5070585;28;20295;-72
2021/05/29 08:41:17;;;;;;;1.90;1.80;;;18.00;85.80;;;;;;5072102;28;20565;-71
2021/05/29 08:43:44;;;;;;;1.97;1.77;;;18.30;85.50;;;;;;5066370;28;20237;-71
2021/05/29 08:46:14;;;;;;;3.20;1.87;;;18.60;84.60;;;;;;5081035;28;20690;-70
2021/05/29 08:48:41;;;;;;;1.70;1.60;;;18.80;82.60;;;;;;5071142;28;20291;-71
2021/05/29 08:51:15;;;;;;;1.77;1.40;;;18.80;80.00;;;;;;5067178;28;20232;-70
2021/05/29 08:53:43;;;;;;;2.07;1.47;;;18.70;79.40;;;;;;5072741;28;20201;-71
2021/05/29 08:56:10;;;;;;;3.50;1.30;;;18.70;78.80;;;;;;5065215;28;20287;-73
2021/05/29 08:58:36;;;;;;;1.73;1.30;;;18.60;77.90;;;;;;5072500;28;20225;-71
2021/05/29 09:01:04;;;;;;;1.90;1.50;;;18.60;77.10;;;;;;5072513;28;20207;-72
2021/05/29 09:03:47;;;;;;;2.83;1.40;;;18.50;75.50;;;;;;5061622;28;20237;-70
2021/05/29 09:06:16;;;;;;;1.93;1.50;;;18.60;74.80;;;;;;5064597;28;20201;-71
2021/05/29 09:08:54;;;;;;;2.40;1.27;;;18.80;73.60;;;;;;5069160;28;20197;-69
2021/05/29 09:11:43;;;;;;;2.60;1.35;;;19.50;71.20;;;;;;5065488;28;20210;-73
2021/05/29 09:14:34;;;;;;;1.65;1.55;;;19.60;71.50;;;;;;5066911;28;20236;-71
2021/05/29 09:17:14;;;;;;;2.33;1.50;;;19.90;69.10;;;;;;5072610;28;20211;-71
2021/05/29 09:19:56;;;;;;;2.90;1.60;;;20.30;67.40;;;;;;5072661;28;20650;-71
2021/05/29 09:22:26;;;;;;;1.58;1.48;;;20.40;67.80;;;;;;5069190;28;20209;-71
2021/05/29 09:25:13;;;;;;;1.83;1.40;;;20.60;66.10;;;;;;5066842;28;20201;-71
2021/05/29 09:27:52;;;;;;;3.00;1.30;;;20.80;64.40;;;;;;5064893;28;20327;-70
2021/05/29 09:30:35;;;;;;;1.50;1.40;;;20.70;62.50;;;;;;5073214;28;20316;-71
2021/05/29 09:33:13;;;;;;;1.35;0.98;;;20.60;62.00;;;;;;5073467;28;20296;-71
2021/05/29 09:35:40;;;;;;;1.80;1.17;;;20.40;60.40;;;;;;5072519;28;20316;-71
2021/05/29 09:38:07;;;;;;;1.40;1.30;;;20.30;60.30;;;;;;5073253;28;20206;-70
2021/05/29 09:40:33;;;;;;;1.15;1.05;;;20.20;60.70;;;;;;5072532;28;20288;-72
2021/05/29 09:43:05;;;;;;;2.05;1.20;;;20.00;61.10;;;;;;5072535;28;20233;-72
2021/05/29 09:45:32;;;;;;;2.08;1.17;;;19.90;60.90;;;;;;5073247;28;20201;-73
2021/05/29 09:48:18;;;;;;;2.17;1.40;;;19.70;60.70;;;;;;5072863;28;20680;-71
2021/05/29 09:51:16;;;;;;;1.20;1.15;;;19.60;61.60;;;;;;5068567;28;20218;-71
2021/05/29 09:53:43;;;;;;;1.55;1.42;;;19.50;62.80;;;;;;4988294;28;20283;-72
2021/05/29 09:56:24;;;;;;;2.35;1.63;;;19.40;63.70;;;;;;5046508;28;20265;-71
2021/05/29 09:58:58;;;;;;;1.52;1.35;;;19.20;65.00;;;;;;5067392;28;20210;-71
2021/05/29 10:01:46;;;;;;;1.50;1.40;;;19.10;65.60;;;;;;5076709;28;20233;-71
2021/05/29 10:04:15;;;;;;;1.75;1.48;;;19.00;65.80;;;;;;5075942;28;20197;-72
2021/05/29 10:06:53;;;;;;;2.88;1.50;;;18.90;66.20;;;;;;5076689;28;20240;-71
2021/05/29 10:09:20;;;;;;;1.25;1.20;;;18.90;66.00;;;;;;5075773;28;20201;-71
2021/05/29 10:11:46;;;;;;;2.45;1.45;;;18.90;65.90;;;;;;5076170;28;20261;-71
2021/05/29 10:14:15;;;;;;;2.17;1.50;;;19.00;66.40;;;;;;5075994;28;20256;-71
2021/05/29 10:16:42;;;;;;;2.25;1.58;;;19.30;66.10;;;;;;5076050;28;20201;-72
2021/05/29 10:19:10;;;;;;;2.60;1.50;;;19.50;65.40;;;;;;5071837;28;20635;-72
2021/05/29 10:21:37;;;;;;;1.75;1.27;;;19.70;65.00;;;;;;5072994;28;20624;-71
2021/05/29 10:24:06;;;;;;;1.33;1.23;;;19.90;64.80;;;;;;5076612;28;20300;-72
2021/05/29 10:26:34;;;;;;;3.00;1.38;;;20.20;64.30;;;;;;5075713;28;20205;-71
2021/05/29 10:29:02;;;;;;;1.45;1.23;;;20.40;63.10;;;;;;5068580;28;20596;-74
2021/05/29 10:31:31;;;;;;;2.25;1.20;;;20.60;61.50;;;;;;5073208;28;20728;-71
2021/05/29 10:33:58;;;;;;;4.85;1.20;;;20.70;60.60;;;;;;5076268;28;21137;-68
2021/05/29 10:36:40;;;;;;;1.10;1.10;;;20.70;60.30;;;;;;5066572;28;20622;-71
2021/05/29 10:39:09;;;;;;;1.42;1.10;;;20.90;60.10;;;;;;5075644;28;20568;-70
2021/05/29 10:41:57;;;;;;;3.03;1.48;;;21.20;58.60;;;;;;5076103;28;20212;-73
2021/05/29 10:44:35;;;;;;;1.35;1.25;;;21.70;58.10;;;;;;5076972;28;20537;-72
2021/05/29 10:47:07;;;;;;;3.03;1.40;;;22.00;57.50;;;;;;5076384;28;20264;-71
2021/05/29 10:50:01;;;;;;;0.98;0.90;;;22.20;56.50;;;;;;5075820;28;20220;-71
2021/05/29 10:52:52;;;;;;;2.55;1.27;;;22.60;55.20;;;;;;5078024;28;20198;-71
2021/05/29 10:55:24;;;;;;;1.40;1.30;;;23.00;53.70;;;;;;5058521;28;20563;-72
2021/05/29 10:57:52;;;;;;;1.83;1.08;;;23.30;52.50;;;;;;5079082;28;20263;-71
2021/05/29 11:01:01;;;;;;;1.25;1.15;;;23.40;51.70;;;;;;5078145;28;20599;-71
2021/05/29 11:03:30;;;;;;;1.50;1.40;;;23.30;51.20;;;;;;5071279;28;20209;-70
2021/05/29 11:06:02;;;;;;;1.40;1.30;;;23.30;51.90;;;;;;5083602;28;20229;-71
2021/05/29 11:08:48;;;;;;;1.52;1.42;;;23.20;51.20;;;;;;5076300;28;20202;-71
2021/05/29 11:11:52;;;;;;;1.88;1.35;;;23.10;51.10;;;;;;5069581;28;20286;-71
2021/05/29 11:14:21;;;;;;;2.15;1.30;;;22.90;51.50;;;;;;5079176;28;20241;-72
2021/05/29 11:17:13;;;;;;;1.95;1.10;;;22.70;51.50;;;;;;5087851;28;20269;-71
2021/05/29 11:19:44;;;;;;;1.58;1.13;;;22.20;51.30;;;;;;5085852;28;20205;-71
2021/05/29 11:22:12;;;;;;;1.40;1.30;;;21.80;51.60;;;;;;5086414;28;20201;-71
2021/05/29 11:24:40;;;;;;;0.93;0.93;;;21.40;51.80;;;;;;5085524;28;20205;-71
2021/05/29 11:27:08;;;;;;;1.05;0.98;;;21.00;52.40;;;;;;5086687;28;20682;-71
2021/05/29 11:29:58;;;;;;;1.88;1.70;;;20.60;53.00;;;;;;5086169;28;20311;-72
2021/05/29 11:32:46;;;;;;;1.80;1.48;;;20.30;54.30;;;;;;5079903;28;20263;-71
2021/05/29 11:35:31;;;;;;;1.50;1.40;;;20.20;55.10;;;;;;5069245;28;20205;-71
2021/05/29 11:38:00;;;;;;;1.30;1.20;;;20.40;55.70;;;;;;5076506;28;20197;-71
2021/05/29 11:40:55;;;;;;;1.88;1.35;;;20.70;55.70;;;;;;5075175;28;20305;-72
2021/05/29 11:43:33;;;;;;;2.97;1.40;;;20.80;55.50;;;;;;5075980;28;20607;-75
2021/05/29 11:46:02;;;;;;;1.98;1.33;;;21.10;55.60;;;;;;5075392;28;20669;-70
2021/05/29 11:48:33;;;;;;;2.13;1.95;;;21.40;55.20;;;;;;5073722;28;20292;-73
2021/05/29 11:51:12;;;;;;;1.50;1.40;;;21.50;54.50;;;;;;5074729;28;20216;-72
2021/05/29 11:53:40;;;;;;;2.22;1.42;;;21.50;54.50;;;;;;5075989;28;20581;-70
2021/05/29 11:56:07;;;;;;;1.42;1.33;;;21.50;54.80;;;;;;5074090;28;20327;-71
2021/05/29 11:58:57;;;;;;;4.13;2.03;;;21.30;55.00;;;;;;5071276;28;20301;-70
2021/05/29 12:01:28;;;;;;;2.13;1.85;;;21.00;55.50;;;;;;5072585;28;20241;-72
2021/05/29 12:03:58;;;;;;;1.73;1.63;;;20.70;55.90;;;;;;5073741;28;20201;-70
2021/05/29 12:06:46;;;;;;;2.90;1.55;;;20.40;56.70;;;;;;5065563;28;20213;-71
2021/05/29 12:09:14;;;;;;;2.47;1.75;;;20.00;57.40;;;;;;5073560;28;20201;-70
2021/05/29 12:11:43;;;;;;;2.30;1.80;;;19.70;58.00;;;;;;5074228;28;20225;-72
2021/05/29 12:14:12;;;;;;;1.98;1.83;;;19.50;58.90;;;;;;5073368;28;20233;-70
2021/05/29 12:16:42;;;;;;;3.38;1.58;;;19.40;59.90;;;;;;5069175;28;20289;-70
2021/05/29 12:19:25;;;;;;;2.67;1.70;;;19.30;60.70;;;;;;5067250;28;20272;-69
2021/05/29 12:21:54;;;;;;;1.70;1.60;;;19.20;61.80;;;;;;5073514;28;20322;-71
2021/05/29 12:24:21;;;;;;;1.88;1.67;;;19.10;62.10;;;;;;5073658;28;20612;-71
2021/05/29 12:26:50;;;;;;;2.40;2.20;;;19.10;62.30;;;;;;5067717;28;20542;-72
2021/05/29 12:29:19;;;;;;;2.58;2.00;;;19.00;62.90;;;;;;5058874;28;20212;-72
2021/05/29 12:31:49;;;;;;;3.88;2.03;;;18.90;63.20;;;;;;5074217;28;20280;-73
2021/05/29 12:34:16;;;;;;;3.17;1.85;;;18.90;64.20;;;;;;5074758;28;20212;-72
2021/05/29 12:37:08;;;;;;;2.53;1.83;;;18.80;64.70;;;;;;5064078;28;20202;-72
2021/05/29 12:39:52;;;;;;;2.47;1.90;;;18.90;65.20;;;;;;5074053;28;20666;-72
2021/05/29 12:42:24;;;;;;;6.50;1.83;;;19.00;64.10;;;;;;5060152;28;20296;-70
2021/05/29 12:44:52;;;;;;;2.08;1.75;;;18.90;63.00;;;;;;5074700;28;20209;-72
2021/05/29 12:47:21;;;;;;;2.47;1.77;;;18.80;62.90;;;;;;5057790;28;20271;-72
2021/05/29 12:49:47;;;;;;;3.33;1.70;;;18.80;62.90;;;;;;5068301;28;20288;-71
2021/05/29 12:52:31;;;;;;;1.40;1.30;;;18.90;63.60;;;;;;5068177;28;20216;-72
2021/05/29 12:54:58;;;;;;;2.28;1.55;;;19.20;62.80;;;;;;5061274;28;20217;-71
2021/05/29 12:57:36;;;;;;;2.20;1.80;;;19.40;62.50;;;;;;5056058;28;20233;-70
2021/05/29 13:00:23;;;;;;;3.08;2.05;;;19.40;61.90;;;;;;5068808;28;20619;-72
2021/05/29 13:09:05;;;;;;;3.88;1.85;;;19.40;61.40;;;;;;5056024;28;20208;-73
2021/05/29 13:11:34;;;;;;;3.15;1.77;;;19.30;61.20;;;;;;5058653;28;20257;-72
2021/05/29 13:14:02;;;;;;;2.70;1.40;;;19.30;61.00;;;;;;5072854;28;20229;-70
2021/05/29 13:16:29;;;;;;;2.67;1.48;;;19.40;61.40;;;;;;5073849;28;20215;-71